Time;durP1;ratioP1;P1;durP2;ratioP2;P2;SDS_P1;SDS_P2;PMS_P1;PMS_P2;Temp;Humidity;BMP_temperature;BMP_pressure;BME280_temperature;BME280_humidity;BME280_pressure;Samples;Min_cycle;Max_cycle;Signal;HPM_P1;HPM_P2
2022/11/05 00:10:06;;;;;;;;;;;6.60;99.90;;;;;;5074645;28;19973;-74
2022/11/05 00:18:01;;;;;;;;;;;6.50;99.90;;;;;;5069415;28;19943;-74
2022/11/05 00:20:26;;;;;;;;;;;6.50;99.90;;;;;;5068513;28;20352;-73
2022/11/05 00:25:51;;;;;;;;;;;6.50;99.90;;;;;;5075387;28;19927;-74
2022/11/05 00:28:16;;;;;;;;;;;6.50;99.90;;;;;;5102279;27;20014;-74
2022/11/05 00:30:42;;;;;;;;;;;6.50;99.90;;;;;;5069061;28;20011;-74
2022/11/05 00:33:07;;;;;;;;;;;6.40;99.90;;;;;;5070904;28;20428;-73
2022/11/05 00:35:33;;;;;;;;;;;6.40;99.90;;;;;;5078015;28;20007;-74
2022/11/05 00:37:58;;;;;;;;;;;6.40;99.90;;;;;;5104530;27;19924;-73
2022/11/05 00:40:24;;;;;;;;;;;6.40;99.90;;;;;;5074957;28;19971;-74
2022/11/05 00:45:34;;;;;;;;;;;6.50;99.90;;;;;;5072212;28;19927;-73
2022/11/05 00:50:43;;;;;;;;;;;6.40;99.90;;;;;;5077138;28;19959;-73
2022/11/05 00:53:09;;;;;;;;;;;6.50;99.90;;;;;;5066643;28;19928;-73
2022/11/05 00:55:37;;;;;;;;;;;6.50;99.90;;;;;;5067836;28;20412;-73
2022/11/05 00:58:03;;;;;;;;;;;6.50;99.90;;;;;;5073925;28;19931;-73
2022/11/05 01:00:30;;;;;;;;;;;6.50;99.90;;;;;;5073323;28;19943;-73
2022/11/05 01:02:56;;;;;;;;;;;6.40;99.90;;;;;;5065205;28;19936;-73
2022/11/05 01:05:22;;;;;;;;;;;6.40;99.90;;;;;;5071878;28;19924;-73
2022/11/05 01:07:47;;;;;;;;;;;6.20;99.90;;;;;;5056123;28;19927;-73
2022/11/05 01:10:13;;;;;;;;;;;6.20;99.90;;;;;;5069414;28;19924;-73
2022/11/05 01:12:38;;;;;;;;;;;6.10;99.90;;;;;;5068026;28;20367;-73
2022/11/05 01:15:04;;;;;;;;;;;6.00;99.90;;;;;;5062533;28;20275;-72
2022/11/05 01:17:29;;;;;;;;;;;6.00;99.90;;;;;;5066574;28;19973;-73
2022/11/05 01:19:55;;;;;;;;;;;5.90;99.90;;;;;;5060306;28;20534;-73
2022/11/05 01:22:20;;;;;;;;;;;5.90;99.90;;;;;;5072909;28;19936;-72
2022/11/05 01:24:46;;;;;;;;;;;5.80;99.90;;;;;;5071920;28;19928;-73
2022/11/05 01:27:11;;;;;;;;;;;5.90;99.90;;;;;;5074507;28;19928;-73
2022/11/05 01:29:37;;;;;;;;;;;5.90;99.90;;;;;;5070933;28;19939;-72
2022/11/05 01:32:02;;;;;;;;;;;6.00;99.90;;;;;;5072647;28;20003;-73
2022/11/05 01:34:28;;;;;;;;;;;6.10;99.90;;;;;;5046936;28;19927;-73
2022/11/05 01:36:53;;;;;;;;;;;6.20;99.90;;;;;;5068651;28;20135;-73
2022/11/05 01:39:19;;;;;;;;;;;6.10;99.90;;;;;;5063260;28;19928;-73
2022/11/05 01:41:44;;;;;;;;;;;6.20;99.90;;;;;;5075237;28;20014;-72
2022/11/05 01:44:29;;;;;;;;;;;6.10;99.90;;;;;;5066562;28;19924;-73
2022/11/05 01:46:54;;;;;;;;;;;6.20;99.90;;;;;;5075012;28;19924;-72
2022/11/05 01:49:27;;;;;;;;;;;6.10;99.90;;;;;;5074649;28;20293;-73
2022/11/05 01:51:54;;;;;;;;;;;6.00;99.90;;;;;;5065671;28;19920;-72
2022/11/05 01:54:23;;;;;;;;;;;6.10;99.90;;;;;;5101710;28;19920;-73
2022/11/05 01:56:50;;;;;;;;;;;6.10;99.90;;;;;;5070675;28;19920;-72
2022/11/05 01:59:19;;;;;;;;;;;6.10;99.90;;;;;;5063714;28;19931;-72
2022/11/05 02:01:45;;;;;;;;;;;6.10;99.90;;;;;;5070349;28;19920;-72
2022/11/05 02:04:13;;;;;;;;;;;6.10;99.90;;;;;;5065138;28;19943;-73
2022/11/05 02:06:45;;;;;;;;;;;6.10;99.90;;;;;;5067119;28;20022;-73
2022/11/05 02:09:13;;;;;;;;;;;6.00;99.90;;;;;;5070239;28;19927;-73
2022/11/05 02:11:39;;;;;;;;;;;5.90;99.90;;;;;;5091744;28;19920;-72
2022/11/05 02:14:04;;;;;;;;;;;5.90;99.90;;;;;;5072785;28;19920;-72
2022/11/05 02:16:39;;;;;;;;;;;5.80;99.90;;;;;;5055573;28;19936;-73
2022/11/05 02:19:23;;;;;;;;;;;5.90;99.90;;;;;;5069970;28;20371;-73
2022/11/05 02:22:01;;;;;;;;;;;5.90;99.90;;;;;;5065965;28;19931;-72
2022/11/05 02:24:39;;;;;;;;;;;5.80;99.90;;;;;;5100977;27;19924;-73
2022/11/05 02:27:07;;;;;;;;;;;5.90;99.90;;;;;;5069993;28;19920;-73
2022/11/05 02:29:36;;;;;;;;;;;5.90;99.90;;;;;;5067657;28;19955;-73
2022/11/05 02:32:13;;;;;;;;;;;5.80;99.90;;;;;;5066419;28;19936;-73
2022/11/05 02:34:46;;;;;;;;;;;5.90;99.90;;;;;;5068459;28;19926;-73
2022/11/05 02:37:11;;;;;;;;;;;5.80;99.90;;;;;;5071251;28;19925;-73
2022/11/05 02:40:00;;;;;;;;;;;5.80;99.90;;;;;;5066590;28;20355;-73
2022/11/05 02:42:51;;;;;;;;;;;5.80;99.90;;;;;;5070340;28;19928;-73
2022/11/05 02:45:33;;;;;;;;;;;5.70;99.90;;;;;;5073394;28;19968;-73
2022/11/05 02:48:18;;;;;;;;;;;5.90;99.90;;;;;;5066968;28;20363;-72
2022/11/05 02:51:06;;;;;;;;;;;5.80;99.90;;;;;;5073788;28;19920;-73
2022/11/05 02:53:46;;;;;;;;;;;5.80;99.90;;;;;;5074415;28;20414;-73
2022/11/05 02:56:20;;;;;;;;;;;5.80;99.90;;;;;;5068557;28;20317;-73
2022/11/05 02:58:46;;;;;;;;;;;5.80;99.90;;;;;;5060105;28;19932;-73
2022/11/05 03:01:11;;;;;;;;;;;5.80;99.90;;;;;;5068236;28;20379;-73
2022/11/05 03:03:39;;;;;;;;;;;5.80;99.90;;;;;;5065092;28;20021;-73
2022/11/05 03:06:07;;;;;;;;;;;5.70;99.90;;;;;;5073065;28;19924;-73
2022/11/05 03:08:33;;;;;;;;;;;5.80;99.90;;;;;;5065765;28;19924;-72
2022/11/05 03:11:02;;;;;;;;;;;5.80;99.90;;;;;;5069834;28;19921;-73
2022/11/05 03:13:40;;;;;;;;;;;5.70;99.90;;;;;;5068381;28;19924;-73
2022/11/05 03:16:10;;;;;;;;;;;5.70;99.90;;;;;;5055500;28;19925;-73
2022/11/05 03:18:43;;;;;;;;;;;5.70;99.90;;;;;;5069385;28;20610;-73
2022/11/05 03:21:10;;;;;;;;;;;5.70;99.90;;;;;;5073299;28;19921;-73
2022/11/05 03:23:36;;;;;;;;;;;5.70;99.90;;;;;;5068805;28;19928;-73
2022/11/05 03:26:04;;;;;;;;;;;5.70;99.90;;;;;;5049751;28;20188;-72
2022/11/05 03:28:33;;;;;;;;;;;5.70;99.90;;;;;;5060206;28;19929;-72
2022/11/05 03:31:00;;;;;;;;;;;5.60;99.90;;;;;;5068493;28;20285;-73
2022/11/05 03:33:27;;;;;;;;;;;5.60;99.90;;;;;;5046536;28;21169;-73
2022/11/05 03:35:54;;;;;;;;;;;5.70;99.90;;;;;;5104988;27;20457;-72
2022/11/05 03:38:21;;;;;;;;;;;5.70;99.90;;;;;;5067313;28;19920;-73
2022/11/05 03:40:48;;;;;;;;;;;5.60;99.90;;;;;;5070192;28;19986;-73
2022/11/05 03:43:15;;;;;;;;;;;5.60;99.90;;;;;;5060018;28;20025;-72
2022/11/05 03:45:42;;;;;;;;;;;5.70;99.90;;;;;;5073024;28;19973;-72
2022/11/05 03:48:09;;;;;;;;;;;5.70;99.90;;;;;;5098275;27;20070;-73
2022/11/05 03:50:42;;;;;;;;;;;5.70;99.90;;;;;;5072579;28;19920;-73
2022/11/05 03:53:13;;;;;;;;;;;5.60;99.90;;;;;;5044333;28;19978;-73
2022/11/05 03:55:48;;;;;;;;;;;5.70;99.90;;;;;;5074371;28;20007;-73
2022/11/05 03:58:14;;;;;;;;;;;5.60;99.90;;;;;;5062898;28;20366;-73
2022/11/05 04:00:39;;;;;;;;;;;5.70;99.90;;;;;;5069883;28;19920;-73
2022/11/05 04:03:05;;;;;;;;;;;5.60;99.90;;;;;;5068954;28;19986;-73
2022/11/05 04:05:30;;;;;;;;;;;5.60;99.90;;;;;;5072621;28;19924;-73
2022/11/05 04:13:24;;;;;;;;;;;5.60;99.90;;;;;;5064834;28;19927;-73
2022/11/05 04:18:38;;;;;;;;;;;5.50;99.90;;;;;;5071865;28;19951;-73
2022/11/05 04:24:07;;;;;;;;;;;5.50;99.90;;;;;;5066798;28;19931;-74
2022/11/05 04:26:33;;;;;;;;;;;5.50;99.90;;;;;;5071523;28;19920;-73
2022/11/05 04:31:43;;;;;;;;;;;5.50;99.90;;;;;;5064838;28;19927;-74
2022/11/05 04:34:08;;;;;;;;;;;5.50;99.90;;;;;;5064291;28;21130;-73
2022/11/05 04:36:34;;;;;;;;;;;5.50;99.90;;;;;;5071126;28;20359;-73
2022/11/05 04:38:59;;;;;;;;;;;5.50;99.90;;;;;;5066836;28;19924;-73
2022/11/05 04:41:25;;;;;;;;;;;5.40;99.90;;;;;;5069874;28;20011;-74
2022/11/05 04:43:50;;;;;;;;;;;5.40;99.90;;;;;;5067634;28;19928;-74
2022/11/05 04:46:16;;;;;;;;;;;5.30;99.90;;;;;;5071675;28;20004;-73
2022/11/05 04:48:41;;;;;;;;;;;5.40;99.90;;;;;;5070380;28;20631;-73
2022/11/05 04:51:07;;;;;;;;;;;5.30;99.90;;;;;;5072765;28;20430;-73
2022/11/05 04:53:32;;;;;;;;;;;5.30;99.90;;;;;;5067598;28;19931;-73
2022/11/05 04:56:11;;;;;;;;;;;5.40;99.90;;;;;;5072285;28;19927;-73
2022/11/05 04:58:40;;;;;;;;;;;5.30;99.90;;;;;;5063948;28;20287;-74
2022/11/05 05:01:10;;;;;;;;;;;5.40;99.90;;;;;;5063401;28;20063;-74
2022/11/05 05:03:35;;;;;;;;;;;5.30;99.90;;;;;;5063933;28;19932;-73
2022/11/05 05:06:00;;;;;;;;;;;5.20;99.90;;;;;;5069154;28;19927;-73
2022/11/05 05:08:26;;;;;;;;;;;5.20;99.90;;;;;;5094101;27;19920;-73
2022/11/05 05:10:51;;;;;;;;;;;5.10;99.90;;;;;;5071585;28;20048;-73
2022/11/05 05:13:17;;;;;;;;;;;5.10;99.90;;;;;;5062250;28;19932;-73
2022/11/05 05:15:42;;;;;;;;;;;5.10;99.90;;;;;;5079504;28;19973;-73
2022/11/05 05:18:08;;;;;;;;;;;5.00;99.90;;;;;;5061539;28;19928;-73
2022/11/05 05:23:17;;;;;;;;;;;5.10;99.90;;;;;;5070456;28;20433;-73
2022/11/05 05:25:43;;;;;;;;;;;5.10;99.90;;;;;;5070248;28;19920;-73
2022/11/05 05:28:08;;;;;;;;;;;5.00;99.90;;;;;;5068598;28;21705;-73
2022/11/05 05:30:34;;;;;;;;;;;5.00;99.90;;;;;;5068571;28;19935;-73
2022/11/05 05:33:03;;;;;;;;;;;5.10;99.90;;;;;;5067539;28;19925;-73
2022/11/05 05:35:28;;;;;;;;;;;5.20;99.90;;;;;;5059816;28;20256;-73
2022/11/05 05:37:54;;;;;;;;;;;5.20;99.90;;;;;;5063809;28;19931;-73
2022/11/05 05:40:20;;;;;;;;;;;5.30;99.90;;;;;;5050234;28;20427;-73
2022/11/05 05:42:45;;;;;;;;;;;5.50;99.90;;;;;;5096096;27;19948;-73
2022/11/05 05:45:11;;;;;;;;;;;5.60;99.90;;;;;;5067704;28;19975;-73
2022/11/05 05:47:37;;;;;;;;;;;5.60;99.90;;;;;;5077791;28;19927;-73
2022/11/05 05:50:03;;;;;;;;;;;5.80;99.90;;;;;;5072821;28;19924;-73
2022/11/05 05:52:28;;;;;;;;;;;5.80;99.90;;;;;;5077379;28;19947;-73
2022/11/05 05:54:54;;;;;;;;;;;6.00;99.90;;;;;;5078110;28;19927;-74
2022/11/05 05:57:19;;;;;;;;;;;5.90;99.90;;;;;;5074930;28;19927;-73
2022/11/05 05:59:45;;;;;;;;;;;6.00;99.90;;;;;;5100954;27;19929;-72
2022/11/05 06:02:11;;;;;;;;;;;6.00;99.90;;;;;;5090956;27;19951;-73
2022/11/05 06:04:37;;;;;;;;;;;6.20;99.90;;;;;;5070190;28;20028;-73
2022/11/05 06:07:02;;;;;;;;;;;6.10;99.90;;;;;;5086137;28;20018;-73
2022/11/05 06:09:28;;;;;;;;;;;6.10;99.90;;;;;;5067354;28;19972;-74
2022/11/05 06:11:53;;;;;;;;;;;6.10;99.90;;;;;;5097898;27;19920;-73
2022/11/05 06:14:19;;;;;;;;;;;6.10;99.90;;;;;;5055960;28;19984;-73
2022/11/05 06:16:44;;;;;;;;;;;5.90;99.90;;;;;;5067967;28;19928;-73
2022/11/05 06:19:10;;;;;;;;;;;6.00;99.90;;;;;;5065457;28;20001;-73
2022/11/05 06:21:35;;;;;;;;;;;5.80;99.90;;;;;;5068643;28;19924;-73
2022/11/05 06:24:01;;;;;;;;;;;5.80;99.90;;;;;;5069137;28;20404;-73
2022/11/05 06:26:27;;;;;;;;;;;5.80;99.90;;;;;;5056499;28;19920;-73
2022/11/05 06:28:53;;;;;;;;;;;5.80;99.90;;;;;;5047278;28;20247;-72
2022/11/05 06:31:18;;;;;;;;;;;5.80;99.90;;;;;;5070442;28;19924;-73
2022/11/05 06:33:44;;;;;;;;;;;5.70;99.90;;;;;;5069353;28;20371;-72
2022/11/05 06:36:13;;;;;;;;;;;5.80;99.90;;;;;;5071047;28;19920;-73
2022/11/05 06:38:38;;;;;;;;;;;5.70;99.90;;;;;;5064099;28;22434;-72
2022/11/05 06:41:04;;;;;;;;;;;5.80;99.90;;;;;;5061362;28;19928;-73
2022/11/05 06:43:29;;;;;;;;;;;5.80;99.90;;;;;;5066701;28;20395;-73
2022/11/05 06:45:55;;;;;;;;;;;5.80;99.90;;;;;;5069690;28;19920;-73
2022/11/05 06:48:21;;;;;;;;;;;5.80;99.90;;;;;;5058203;28;19973;-73
2022/11/05 06:50:46;;;;;;;;;;;5.90;99.90;;;;;;5101582;27;19955;-73
2022/11/05 06:53:12;;;;;;;;;;;5.80;99.90;;;;;;5067259;28;20406;-72
2022/11/05 06:55:38;;;;;;;;;;;5.90;99.90;;;;;;5064447;28;20379;-73
2022/11/05 06:58:03;;;;;;;;;;;5.80;99.90;;;;;;5066841;28;19920;-73
2022/11/05 07:00:29;;;;;;;;;;;5.90;99.90;;;;;;5069107;28;19946;-73
2022/11/05 07:02:55;;;;;;;;;;;5.80;99.90;;;;;;5066330;28;19921;-73
2022/11/05 07:05:21;;;;;;;;;;;5.80;99.90;;;;;;5048376;28;20414;-73
2022/11/05 07:07:47;;;;;;;;;;;5.80;99.90;;;;;;5071056;28;19975;-73
2022/11/05 07:10:14;;;;;;;;;;;5.90;99.90;;;;;;5069203;28;19929;-73
2022/11/05 07:12:39;;;;;;;;;;;5.80;99.90;;;;;;5069390;28;19920;-72
2022/11/05 07:15:05;;;;;;;;;;;5.90;99.90;;;;;;5070305;28;19928;-72
2022/11/05 07:17:30;;;;;;;;;;;5.90;99.90;;;;;;5067517;28;20416;-73
2022/11/05 07:19:56;;;;;;;;;;;5.90;99.90;;;;;;5067421;28;20378;-73
2022/11/05 07:22:21;;;;;;;;;;;5.90;99.90;;;;;;5098057;27;19928;-73
2022/11/05 07:24:48;;;;;;;;;;;5.90;99.90;;;;;;5063018;28;19932;-73
2022/11/05 07:27:14;;;;;;;;;;;6.00;99.90;;;;;;5069868;28;19928;-73
2022/11/05 07:29:39;;;;;;;;;;;6.00;99.90;;;;;;5097335;27;20405;-74
2022/11/05 07:32:05;;;;;;;;;;;6.00;99.90;;;;;;5072217;28;19920;-73
2022/11/05 07:34:31;;;;;;;;;;;6.00;99.90;;;;;;5075487;28;19934;-74
2022/11/05 07:36:56;;;;;;;;;;;6.00;99.90;;;;;;5078502;28;19973;-73
2022/11/05 07:39:22;;;;;;;;;;;6.10;99.90;;;;;;5064297;28;19990;-73
2022/11/05 07:41:47;;;;;;;;;;;6.20;99.90;;;;;;5071568;28;19963;-74
2022/11/05 07:44:13;;;;;;;;;;;6.20;99.90;;;;;;5076456;28;19935;-73
2022/11/05 07:46:42;;;;;;;;;;;6.30;99.90;;;;;;5080492;28;20328;-72
2022/11/05 07:49:07;;;;;;;;;;;6.30;99.90;;;;;;5068304;28;19920;-72
2022/11/05 07:51:32;;;;;;;;;;;6.40;99.90;;;;;;5070709;28;19920;-73
2022/11/05 07:53:58;;;;;;;;;;;6.50;99.90;;;;;;5077705;28;20394;-71
2022/11/05 07:56:23;;;;;;;;;;;6.50;99.90;;;;;;5053331;28;19921;-69
2022/11/05 07:58:49;;;;;;;;;;;6.50;99.90;;;;;;5059329;28;19973;-72
2022/11/05 08:01:14;;;;;;;;;;;6.60;99.90;;;;;;5069147;28;19986;-74
2022/11/05 08:03:40;;;;;;;;;;;6.70;99.90;;;;;;5083239;28;19924;-73
2022/11/05 08:06:05;;;;;;;;;;;6.80;99.90;;;;;;5068928;28;19929;-71
2022/11/05 08:08:31;;;;;;;;;;;6.80;99.90;;;;;;5069423;28;19920;-72
2022/11/05 08:11:07;;;;;;;;;;;6.80;99.90;;;;;;5067918;28;20371;-72
2022/11/05 08:13:33;;;;;;;;;;;6.90;99.90;;;;;;5069795;28;19925;-71
2022/11/05 08:16:00;;;;;;;;;;;7.00;99.90;;;;;;5061378;28;19943;-71
2022/11/05 08:18:30;;;;;;;;;;;7.10;99.90;;;;;;5069011;28;19970;-72
2022/11/05 08:20:59;;;;;;;;;;;7.10;99.90;;;;;;5063289;28;20536;-71
2022/11/05 08:23:26;;;;;;;;;;;7.20;99.90;;;;;;5064000;28;19964;-70
2022/11/05 08:25:51;;;;;;;;;;;7.30;99.90;;;;;;5059873;28;19921;-70
2022/11/05 08:28:18;;;;;;;;;;;7.30;99.90;;;;;;5051587;28;19979;-72
2022/11/05 08:30:47;;;;;;;;;;;7.40;99.90;;;;;;5060642;28;19964;-72
2022/11/05 08:33:13;;;;;;;;;;;7.50;99.90;;;;;;5066948;28;19925;-69
2022/11/05 08:35:38;;;;;;;;;;;7.60;99.90;;;;;;5068155;28;19920;-69
2022/11/05 08:38:05;;;;;;;;;;;7.60;99.90;;;;;;5064271;28;19974;-69
2022/11/05 08:40:31;;;;;;;;;;;7.70;99.90;;;;;;5069177;28;19947;-69
2022/11/05 08:42:58;;;;;;;;;;;7.70;99.90;;;;;;5070132;28;20260;-68
2022/11/05 08:45:24;;;;;;;;;;;7.80;99.90;;;;;;5064431;28;20378;-68
2022/11/05 08:47:49;;;;;;;;;;;7.90;99.90;;;;;;5067855;28;19952;-68
2022/11/05 08:50:15;;;;;;;;;;;8.00;99.90;;;;;;5055550;28;19986;-67
2022/11/05 08:52:41;;;;;;;;;;;8.00;99.90;;;;;;5068057;28;19924;-69
2022/11/05 08:55:06;;;;;;;;;;;8.00;99.90;;;;;;5067135;28;19921;-68
2022/11/05 08:57:32;;;;;;;;;;;8.10;99.90;;;;;;5068417;28;19931;-68
2022/11/05 08:59:57;;;;;;;;;;;8.30;99.90;;;;;;5068647;28;19920;-67
2022/11/05 09:02:23;;;;;;;;;;;8.40;99.90;;;;;;5071993;28;20438;-68
2022/11/05 09:04:48;;;;;;;;;;;8.50;99.90;;;;;;5058760;28;19970;-68
2022/11/05 09:07:14;;;;;;;;;;;8.70;99.90;;;;;;5068372;28;19921;-68
2022/11/05 09:09:39;;;;;;;;;;;8.70;99.90;;;;;;5058676;28;19921;-67
2022/11/05 09:12:05;;;;;;;;;;;8.90;99.90;;;;;;5069016;28;19920;-67
2022/11/05 09:14:30;;;;;;;;;;;8.80;99.90;;;;;;5065342;28;20275;-67
2022/11/05 09:16:56;;;;;;;;;;;8.90;99.90;;;;;;5059715;28;19921;-68
2022/11/05 09:19:21;;;;;;;;;;;9.00;99.90;;;;;;5066741;28;19943;-68
2022/11/05 09:21:47;;;;;;;;;;;9.00;99.90;;;;;;5066205;28;19964;-68
2022/11/05 09:24:12;;;;;;;;;;;9.20;99.90;;;;;;5068369;28;19934;-71
2022/11/05 09:26:38;;;;;;;;;;;9.20;99.90;;;;;;5051913;28;19928;-68
2022/11/05 09:29:03;;;;;;;;;;;9.20;99.90;;;;;;5065549;28;19921;-72
2022/11/05 09:31:29;;;;;;;;;;;9.40;99.90;;;;;;5049068;28;19921;-68
2022/11/05 09:33:54;;;;;;;;;;;9.40;99.90;;;;;;5066202;28;19978;-67
2022/11/05 09:36:20;;;;;;;;;;;9.50;99.90;;;;;;5065941;28;20378;-67
2022/11/05 09:38:45;;;;;;;;;;;9.50;99.90;;;;;;5086704;28;19921;-69
2022/11/05 09:41:13;;;;;;;;;;;9.60;99.90;;;;;;5067944;28;19920;-68
2022/11/05 09:43:41;;;;;;;;;;;9.60;99.90;;;;;;5069698;28;19924;-67
2022/11/05 09:46:10;;;;;;;;;;;9.70;99.90;;;;;;5059494;28;19920;-67
2022/11/05 09:48:36;;;;;;;;;;;9.70;99.90;;;;;;5044342;28;19921;-67
2022/11/05 09:51:03;;;;;;;;;;;9.80;99.90;;;;;;5060704;28;19927;-68
2022/11/05 09:53:28;;;;;;;;;;;9.90;99.90;;;;;;5068359;28;19924;-68
2022/11/05 09:55:55;;;;;;;;;;;10.00;99.90;;;;;;5064654;28;19950;-68
2022/11/05 09:58:34;;;;;;;;;;;10.00;99.90;;;;;;5050487;28;20047;-68
2022/11/05 10:01:01;;;;;;;;;;;9.90;99.90;;;;;;5048831;28;19924;-67
2022/11/05 10:03:28;;;;;;;;;;;9.90;99.90;;;;;;5053603;28;19924;-67
2022/11/05 10:05:56;;;;;;;;;;;9.80;99.90;;;;;;5064926;28;19920;-69
2022/11/05 10:08:28;;;;;;;;;;;9.80;99.90;;;;;;5069348;28;20365;-68
2022/11/05 10:10:54;;;;;;;;;;;9.80;99.90;;;;;;5051394;28;19920;-68
2022/11/05 10:13:23;;;;;;;;;;;9.90;99.90;;;;;;5067511;28;19943;-68
2022/11/05 10:16:01;;;;;;;;;;;10.00;99.90;;;;;;5061609;28;19921;-68
2022/11/05 10:18:35;;;;;;;;;;;10.10;99.90;;;;;;5101901;28;20034;-68
2022/11/05 10:21:00;;;;;;;;;;;10.10;99.90;;;;;;5047895;28;20014;-69
2022/11/05 10:23:26;;;;;;;;;;;10.20;99.90;;;;;;5055905;28;19971;-67
2022/11/05 10:25:51;;;;;;;;;;;10.40;99.90;;;;;;5066572;28;19928;-67
2022/11/05 10:28:21;;;;;;;;;;;10.50;99.90;;;;;;5069268;28;19927;-67
2022/11/05 10:30:48;;;;;;;;;;;10.60;99.90;;;;;;5060057;28;19924;-68
2022/11/05 10:33:19;;;;;;;;;;;10.70;99.90;;;;;;5071684;28;20367;-67
2022/11/05 10:35:50;;;;;;;;;;;10.80;99.90;;;;;;5069625;28;19931;-67
2022/11/05 10:38:15;;;;;;;;;;;10.90;99.90;;;;;;5070293;28;19925;-67
2022/11/05 10:41:02;;;;;;;;;;;11.00;99.90;;;;;;5072069;28;19927;-67
2022/11/05 10:43:48;;;;;;;;;;;11.00;99.90;;;;;;5071399;28;19929;-66
2022/11/05 10:46:19;;;;;;;;;;;11.10;99.90;;;;;;5069169;28;19924;-68
2022/11/05 10:48:48;;;;;;;;;;;11.10;99.90;;;;;;5073132;28;19920;-68
2022/11/05 10:51:13;;;;;;;;;;;11.20;99.90;;;;;;5062826;28;20015;-67
2022/11/05 10:53:41;;;;;;;;;;;11.30;99.90;;;;;;5068980;28;20607;-68
2022/11/05 10:56:26;;;;;;;;;;;11.30;99.90;;;;;;5068955;28;19920;-68
2022/11/05 10:58:53;;;;;;;;;;;11.50;99.90;;;;;;5074638;28;20318;-67
2022/11/05 11:01:19;;;;;;;;;;;11.50;99.90;;;;;;5067738;28;19925;-68
2022/11/05 11:03:49;;;;;;;;;;;11.50;99.90;;;;;;5054903;28;19932;-67
2022/11/05 11:06:21;;;;;;;;;;;11.50;99.90;;;;;;5069973;28;19925;-67
2022/11/05 11:08:47;;;;;;;;;;;11.50;99.90;;;;;;5071865;28;20333;-69
2022/11/05 11:11:24;;;;;;;;;;;11.40;99.90;;;;;;5061533;28;19974;-70
2022/11/05 11:14:10;;;;;;;;;;;11.30;99.90;;;;;;5072079;28;20352;-70
2022/11/05 11:16:39;;;;;;;;;;;11.30;99.90;;;;;;5058402;28;20332;-67
2022/11/05 11:19:20;;;;;;;;;;;11.30;99.90;;;;;;5071474;28;19924;-68
2022/11/05 11:21:51;;;;;;;;;;;11.40;99.90;;;;;;5071577;28;19921;-69
2022/11/05 11:24:22;;;;;;;;;;;11.50;99.90;;;;;;5071028;28;19964;-68
2022/11/05 11:26:48;;;;;;;;;;;11.50;99.90;;;;;;5064900;28;20011;-70
2022/11/05 11:29:20;;;;;;;;;;;11.40;99.90;;;;;;5073721;28;19935;-71
2022/11/05 11:31:46;;;;;;;;;;;11.40;99.90;;;;;;5076680;28;20366;-69
2022/11/05 11:34:14;;;;;;;;;;;11.40;99.90;;;;;;5069267;28;19924;-73
2022/11/05 11:36:44;;;;;;;;;;;11.30;99.90;;;;;;5068034;28;19924;-74
2022/11/05 11:39:14;;;;;;;;;;;11.30;99.90;;;;;;5052779;28;19983;-70
2022/11/05 11:41:41;;;;;;;;;;;11.10;99.90;;;;;;5067924;28;19924;-70
2022/11/05 11:44:11;;;;;;;;;;;11.10;99.90;;;;;;5078476;28;19930;-70
2022/11/05 11:46:37;;;;;;;;;;;10.90;99.90;;;;;;5068557;28;20014;-69
2022/11/05 11:49:03;;;;;;;;;;;10.90;99.90;;;;;;5066101;28;20003;-68
2022/11/05 11:51:29;;;;;;;;;;;10.90;99.90;;;;;;5068501;28;20391;-67
2022/11/05 11:53:55;;;;;;;;;;;10.90;99.90;;;;;;5066004;28;19920;-69
2022/11/05 11:56:21;;;;;;;;;;;10.90;99.90;;;;;;5052213;28;19964;-70
2022/11/05 11:58:47;;;;;;;;;;;10.90;99.90;;;;;;5069576;28;20001;-69
2022/11/05 12:01:32;;;;;;;;;;;10.90;99.90;;;;;;5059493;28;19970;-68
2022/11/05 12:04:01;;;;;;;;;;;11.00;99.90;;;;;;5065583;28;19963;-67
2022/11/05 12:06:41;;;;;;;;;;;11.00;99.90;;;;;;5071509;28;20290;-68
2022/11/05 12:09:14;;;;;;;;;;;11.00;99.90;;;;;;5054879;28;19929;-67
2022/11/05 12:11:49;;;;;;;;;;;11.00;99.90;;;;;;5101909;27;20386;-67
2022/11/05 12:14:17;;;;;;;;;;;11.10;99.90;;;;;;5067967;28;19932;-67
2022/11/05 12:16:44;;;;;;;;;;;11.10;99.90;;;;;;5065758;28;19981;-67
2022/11/05 12:19:10;;;;;;;;;;;11.20;99.90;;;;;;5066836;28;19965;-69
2022/11/05 12:24:44;;;;;;;;;;;11.20;99.90;;;;;;5084976;28;20355;-68
2022/11/05 12:27:20;;;;;;;;;;;11.20;99.90;;;;;;5066865;28;19978;-70
2022/11/05 12:29:52;;;;;;;;;;;11.30;99.90;;;;;;5070340;28;19932;-68
2022/11/05 12:32:20;;;;;;;;;;;11.30;99.90;;;;;;5066963;28;19962;-67
2022/11/05 12:34:52;;;;;;;;;;;11.40;99.90;;;;;;5075738;28;19921;-67
2022/11/05 12:37:17;;;;;;;;;;;11.40;99.90;;;;;;5100468;27;20343;-68
2022/11/05 12:39:59;;;;;;;;;;;11.50;99.90;;;;;;5072294;28;20167;-67
2022/11/05 12:42:34;;;;;;;;;;;11.50;99.90;;;;;;5057309;28;20094;-66
2022/11/05 12:45:18;;;;;;;;;;;11.50;99.90;;;;;;5044977;28;19925;-67
2022/11/05 12:47:43;;;;;;;;;;;11.60;99.90;;;;;;5065062;28;19930;-67
2022/11/05 12:50:09;;;;;;;;;;;11.70;99.90;;;;;;5066129;28;20011;-67
2022/11/05 12:53:07;;;;;;;;;;;11.70;99.90;;;;;;5050855;28;19929;-67
2022/11/05 12:55:40;;;;;;;;;;;11.80;99.90;;;;;;5036974;28;20023;-69
2022/11/05 12:58:14;;;;;;;;;;;11.80;99.90;;;;;;5071306;28;19932;-67
2022/11/05 13:00:43;;;;;;;;;;;11.70;99.90;;;;;;5074613;28;20187;-70
2022/11/05 13:03:43;;;;;;;;;;;11.70;99.90;;;;;;5066010;28;19928;-67
2022/11/05 13:06:17;;;;;;;;;;;11.70;99.90;;;;;;5036756;28;21300;-68
2022/11/05 13:09:01;;;;;;;;;;;11.60;99.90;;;;;;5062344;28;19924;-67
2022/11/05 13:11:32;;;;;;;;;;;11.60;99.90;;;;;;5058219;28;19921;-67
2022/11/05 13:14:10;;;;;;;;;;;11.60;99.90;;;;;;5055772;28;19925;-67
2022/11/05 13:16:37;;;;;;;;;;;11.60;99.90;;;;;;5063210;28;19924;-67
2022/11/05 13:19:15;;;;;;;;;;;11.60;99.90;;;;;;5097432;28;19969;-68
2022/11/05 13:21:42;;;;;;;;;;;11.60;99.90;;;;;;5060360;28;19934;-69
2022/11/05 13:24:11;;;;;;;;;;;11.60;99.90;;;;;;5098351;28;19964;-68
2022/11/05 13:26:42;;;;;;;;;;;11.60;99.90;;;;;;5060139;28;19943;-68
2022/11/05 13:29:21;;;;;;;;;;;11.60;99.90;;;;;;5100783;28;20012;-70
2022/11/05 13:32:07;;;;;;;;;;;11.60;99.90;;;;;;5075147;28;21224;-70
2022/11/05 13:34:33;;;;;;;;;;;11.60;99.90;;;;;;5067573;28;19924;-72
2022/11/05 13:39:46;;;;;;;;;;;11.60;99.90;;;;;;5076019;28;20447;-70
2022/11/05 13:42:30;;;;;;;;;;;11.60;99.90;;;;;;5068535;28;19921;-71
2022/11/05 13:44:56;;;;;;;;;;;11.50;99.90;;;;;;5079493;28;19947;-72
2022/11/05 13:47:40;;;;;;;;;;;11.50;99.90;;;;;;5067714;28;19924;-72
2022/11/05 13:50:15;;;;;;;;;;;11.50;99.90;;;;;;5074335;28;20607;-73
2022/11/05 13:52:40;;;;;;;;;;;11.40;99.90;;;;;;5072512;28;19966;-69
2022/11/05 13:55:21;;;;;;;;;;;11.30;99.90;;;;;;5073373;28;19936;-71
2022/11/05 13:58:00;;;;;;;;;;;11.30;99.90;;;;;;5069647;28;19920;-71
2022/11/05 14:00:28;;;;;;;;;;;11.30;99.90;;;;;;5075522;28;20255;-70
2022/11/05 14:03:01;;;;;;;;;;;11.30;99.90;;;;;;5067562;28;20334;-72
2022/11/05 14:05:32;;;;;;;;;;;11.20;99.90;;;;;;5065344;28;19925;-71
2022/11/05 14:07:58;;;;;;;;;;;11.10;99.90;;;;;;5065858;28;19987;-69
2022/11/05 14:10:24;;;;;;;;;;;11.20;99.90;;;;;;5068867;28;19928;-70
2022/11/05 14:12:50;;;;;;;;;;;11.10;99.90;;;;;;5074156;28;19925;-71
2022/11/05 14:15:19;;;;;;;;;;;11.10;99.90;;;;;;5077782;28;19939;-72
2022/11/05 14:18:00;;;;;;;;;;;11.00;99.90;;;;;;5077316;28;20177;-73
2022/11/05 14:20:32;;;;;;;;;;;11.00;99.90;;;;;;5078328;28;19928;-70
2022/11/05 14:23:16;;;;;;;;;;;11.00;99.90;;;;;;5069983;28;19924;-70
2022/11/05 14:25:42;;;;;;;;;;;10.90;99.90;;;;;;5079385;28;19924;-69
2022/11/05 14:28:46;;;;;;;;;;;10.90;99.90;;;;;;5074023;28;19950;-70
2022/11/05 14:31:11;;;;;;;;;;;10.90;99.90;;;;;;5050707;28;19946;-69
2022/11/05 14:33:38;;;;;;;;;;;10.80;99.90;;;;;;5057591;28;19924;-71
2022/11/05 14:36:23;;;;;;;;;;;10.70;99.90;;;;;;5053086;28;19970;-69
2022/11/05 14:38:50;;;;;;;;;;;10.80;99.90;;;;;;5075875;28;20317;-70
2022/11/05 14:41:16;;;;;;;;;;;10.80;99.90;;;;;;5078176;28;19920;-69
2022/11/05 14:43:44;;;;;;;;;;;10.70;99.90;;;;;;5073234;28;20020;-71
2022/11/05 14:46:11;;;;;;;;;;;10.70;99.90;;;;;;5055910;28;19947;-69
2022/11/05 14:48:42;;;;;;;;;;;10.60;99.90;;;;;;5070012;28;19948;-69
2022/11/05 14:51:30;;;;;;;;;;;10.60;99.90;;;;;;5075717;28;19924;-70
2022/11/05 14:54:01;;;;;;;;;;;10.60;99.90;;;;;;5063410;28;20003;-71
2022/11/05 14:56:27;;;;;;;;;;;10.60;99.90;;;;;;5065232;28;19924;-69
2022/11/05 14:58:55;;;;;;;;;;;10.60;99.90;;;;;;5070203;28;19989;-68
2022/11/05 15:01:33;;;;;;;;;;;10.50;99.90;;;;;;5060195;28;19932;-70
2022/11/05 15:04:00;;;;;;;;;;;10.50;99.90;;;;;;5100087;27;20397;-70
2022/11/05 15:06:25;;;;;;;;;;;10.40;99.90;;;;;;5069355;28;19927;-69
2022/11/05 15:08:57;;;;;;;;;;;10.40;99.90;;;;;;5064259;28;20282;-69
2022/11/05 15:11:26;;;;;;;;;;;10.40;99.90;;;;;;5057142;28;20383;-70
2022/11/05 15:13:59;;;;;;;;;;;10.30;99.90;;;;;;5065892;28;20042;-72
2022/11/05 15:16:28;;;;;;;;;;;10.30;99.90;;;;;;5073205;28;20493;-69
2022/11/05 15:18:55;;;;;;;;;;;10.20;99.90;;;;;;5052396;28;19927;-69
2022/11/05 15:21:20;;;;;;;;;;;10.20;99.90;;;;;;5070659;28;20041;-70